Time;durP1;ratioP1;P1;durP2;ratioP2;P2;SDS_P1;SDS_P2;PMS_P1;PMS_P2;Temp;Humidity;BMP_temperature;BMP_pressure;BME280_temperature;BME280_humidity;BME280_pressure;Samples;Min_cycle;Max_cycle;Signal;HPM_P1;HPM_P2
2023/07/24 00:00:05;;;;;;;2.30;1.40;;;;;;;;;;509316;28;1347;-76
2023/07/24 00:00:41;;;;;;;2.10;1.40;;;;;;;;;;509594;28;1464;-76
2023/07/24 00:01:05;;;;;;;1.73;1.38;;;;;;;;;;508650;28;1587;-76
2023/07/24 00:01:21;;;;;;;1.80;1.38;;;;;;;;;;508033;28;1271;-75
2023/07/24 00:01:43;;;;;;;1.75;1.30;;;;;;;;;;507033;28;1404;-76
2023/07/24 00:02:08;;;;;;;1.52;1.27;;;;;;;;;;506725;28;1344;-77
2023/07/24 00:02:42;;;;;;;1.55;1.30;;;;;;;;;;508409;28;1617;-77
2023/07/24 00:03:06;;;;;;;2.17;1.30;;;;;;;;;;504998;28;1403;-76
2023/07/24 00:03:34;;;;;;;1.85;1.30;;;;;;;;;;504985;28;1519;-77
2023/07/24 00:03:59;;;;;;;2.40;1.40;;;;;;;;;;507685;28;1545;-76
2023/07/24 00:04:15;;;;;;;1.63;1.40;;;;;;;;;;504938;28;1275;-77
2023/07/24 00:04:42;;;;;;;2.72;1.40;;;;;;;;;;507116;28;1362;-77
2023/07/24 00:05:30;;;;;;;2.13;1.30;;;;;;;;;;508149;28;1602;-76
2023/07/24 00:06:09;;;;;;;1.55;1.27;;;;;;;;;;507368;28;1366;-76
2023/07/24 00:06:28;;;;;;;1.63;1.30;;;;;;;;;;503547;28;1318;-76
2023/07/24 00:07:10;;;;;;;2.03;1.38;;;;;;;;;;506326;28;1639;-76
2023/07/24 00:07:55;;;;;;;1.65;1.30;;;;;;;;;;497998;29;1495;-77
2023/07/24 00:08:17;;;;;;;2.50;1.45;;;;;;;;;;498166;29;1178;-76
2023/07/24 00:08:56;;;;;;;2.05;1.50;;;;;;;;;;498817;29;1355;-76
2023/07/24 00:09:21;;;;;;;1.95;1.20;;;;;;;;;;498380;29;1506;-76
2023/07/24 00:09:49;;;;;;;2.00;1.40;;;;;;;;;;507703;28;1619;-76
2023/07/24 00:10:27;;;;;;;1.67;1.20;;;;;;;;;;506394;28;1553;-76
2023/07/24 00:11:05;;;;;;;1.58;1.30;;;;;;;;;;510977;28;1367;-76
2023/07/24 00:11:30;;;;;;;1.67;1.38;;;;;;;;;;506998;28;1416;-76
2023/07/24 00:11:51;;;;;;;1.95;1.30;;;;;;;;;;508835;28;1415;-77
2023/07/24 00:12:10;;;;;;;1.92;1.20;;;;;;;;;;508604;28;1426;-76
2023/07/24 00:12:27;;;;;;;2.40;1.40;;;;;;;;;;506354;28;1348;-76
2023/07/24 00:12:48;;;;;;;1.83;1.38;;;;;;;;;;506696;28;1466;-76
2023/07/24 00:13:06;;;;;;;1.67;1.02;;;;;;;;;;506064;28;1566;-76
2023/07/24 00:13:25;;;;;;;1.27;1.10;;;;;;;;;;506087;28;1343;-76
2023/07/24 00:13:44;;;;;;;1.38;1.20;;;;;;;;;;506117;28;1501;-76
2023/07/24 00:14:00;;;;;;;1.48;1.27;;;;;;;;;;506195;28;1343;-76
2023/07/24 00:14:19;;;;;;;1.47;1.30;;;;;;;;;;504874;28;2025;-76
2023/07/24 00:14:35;;;;;;;1.63;1.40;;;;;;;;;;507553;28;1340;-76
2023/07/24 00:14:57;;;;;;;1.73;1.40;;;;;;;;;;503083;28;1244;-76
2023/07/24 00:15:19;;;;;;;2.42;1.50;;;;;;;;;;503454;28;1626;-76
2023/07/24 00:15:40;;;;;;;2.05;1.52;;;;;;;;;;504493;28;940;-76
2023/07/24 00:15:57;;;;;;;2.03;1.33;;;;;;;;;;507165;28;1295;-78
2023/07/24 00:16:33;;;;;;;2.30;1.33;;;;;;;;;;505449;28;1339;-77
2023/07/24 00:16:49;;;;;;;3.67;1.60;;;;;;;;;;508758;28;1117;-76
2023/07/24 00:17:11;;;;;;;2.85;1.48;;;;;;;;;;508969;28;1622;-75
2023/07/24 00:17:27;;;;;;;2.40;1.40;;;;;;;;;;509192;28;1462;-76
2023/07/24 00:18:28;;;;;;;1.55;1.27;;;;;;;;;;502431;28;1177;-77
2023/07/24 00:18:28;;;;;;;2.40;1.50;;;;;;;;;;510540;28;1154;-77
2023/07/24 00:19:33;;;;;;;1.60;1.40;;;;;;;;;;508587;28;1321;-76
2023/07/24 00:19:49;;;;;;;1.95;1.20;;;;;;;;;;497818;29;1302;-76
2023/07/24 00:20:14;;;;;;;1.52;1.30;;;;;;;;;;499928;28;1176;-77
2023/07/24 00:20:36;;;;;;;1.77;1.40;;;;;;;;;;500746;28;1300;-76
2023/07/24 00:20:57;;;;;;;1.63;1.40;;;;;;;;;;502034;28;1349;-76
2023/07/24 00:21:25;;;;;;;1.80;1.30;;;;;;;;;;504266;28;1545;-76
2023/07/24 00:21:49;;;;;;;2.08;1.30;;;;;;;;;;503342;28;1198;-76
2023/07/24 00:22:06;;;;;;;2.35;1.27;;;;;;;;;;506341;28;1344;-76
2023/07/24 00:22:25;;;;;;;1.45;1.10;;;;;;;;;;507180;28;1461;-77
2023/07/24 00:22:40;;;;;;;1.95;1.40;;;;;;;;;;508003;28;1256;-76
2023/07/24 00:22:56;;;;;;;2.87;1.57;;;;;;;;;;507398;28;1501;-76
2023/07/24 00:23:32;;;;;;;2.60;1.50;;;;;;;;;;507433;28;1243;-76
2023/07/24 00:23:48;;;;;;;2.05;1.40;;;;;;;;;;506756;28;1529;-77
2023/07/24 00:24:07;;;;;;;1.83;1.48;;;;;;;;;;502846;28;1405;-76
2023/07/24 00:24:23;;;;;;;1.30;1.20;;;;;;;;;;501982;28;1507;-75
2023/07/24 00:24:59;;;;;;;1.40;1.30;;;;;;;;;;504029;28;1331;-76
2023/07/24 00:25:38;;;;;;;2.20;1.45;;;;;;;;;;506999;28;1140;-76
2023/07/24 00:26:05;;;;;;;2.10;1.42;;;;;;;;;;508684;28;1557;-76
2023/07/24 00:26:31;;;;;;;1.50;1.35;;;;;;;;;;512376;28;1306;-76
2023/07/24 00:27:29;;;;;;;2.88;1.25;;;;;;;;;;504402;28;938;-77
2023/07/24 00:28:11;;;;;;;3.08;1.50;;;;;;;;;;501794;28;1406;-76
2023/07/24 00:28:36;;;;;;;1.40;1.30;;;;;;;;;;502898;28;1310;-76
2023/07/24 00:29:04;;;;;;;1.77;1.20;;;;;;;;;;509575;28;1398;-77
2023/07/24 00:29:28;;;;;;;2.92;1.48;;;;;;;;;;507012;28;1516;-76
2023/07/24 00:29:47;;;;;;;2.25;1.48;;;;;;;;;;507685;28;1533;-77
2023/07/24 00:30:06;;;;;;;1.38;1.20;;;;;;;;;;507193;28;1343;-75
2023/07/24 00:30:22;;;;;;;2.10;1.30;;;;;;;;;;505356;28;1556;-76
2023/07/24 00:30:42;;;;;;;3.00;1.48;;;;;;;;;;504856;28;1661;-76
2023/07/24 00:31:07;;;;;;;1.90;1.30;;;;;;;;;;502990;28;1351;-76
2023/07/24 00:31:22;;;;;;;1.52;1.23;;;;;;;;;;504688;28;1329;-76
2023/07/24 00:31:39;;;;;;;1.65;1.30;;;;;;;;;;503377;28;1343;-77
2023/07/24 00:32:00;;;;;;;1.60;1.30;;;;;;;;;;504353;28;1576;-76
2023/07/24 00:32:19;;;;;;;1.70;1.40;;;;;;;;;;503050;28;1322;-76
2023/07/24 00:33:16;;;;;;;1.55;1.27;;;;;;;;;;504752;28;1359;-77
2023/07/24 00:33:49;;;;;;;1.45;1.20;;;;;;;;;;495036;29;1350;-76
2023/07/24 00:34:14;;;;;;;2.30;1.48;;;;;;;;;;502386;28;1952;-76
2023/07/24 00:34:43;;;;;;;2.10;1.42;;;;;;;;;;506110;28;1443;-76
2023/07/24 00:35:04;;;;;;;2.15;1.40;;;;;;;;;;507628;28;1120;-76
2023/07/24 00:35:43;;;;;;;1.60;1.15;;;;;;;;;;508976;28;1541;-77
2023/07/24 00:35:59;;;;;;;1.50;1.30;;;;;;;;;;509067;28;1411;-76
2023/07/24 00:36:15;;;;;;;1.40;1.30;;;;;;;;;;506500;28;1434;-76
2023/07/24 00:36:31;;;;;;;1.30;1.20;;;;;;;;;;506560;28;1276;-76
2023/07/24 00:36:49;;;;;;;1.40;1.30;;;;;;;;;;505230;28;1344;-78
2023/07/24 00:37:08;;;;;;;1.60;1.40;;;;;;;;;;504421;28;1338;-75
2023/07/24 00:37:30;;;;;;;1.75;1.30;;;;;;;;;;503260;28;1459;-77
2023/07/24 00:37:51;;;;;;;1.83;1.25;;;;;;;;;;506017;28;1442;-76
2023/07/24 00:38:07;;;;;;;1.80;1.30;;;;;;;;;;504094;28;1278;-76
2023/07/24 00:38:24;;;;;;;1.48;1.30;;;;;;;;;;503701;28;1177;-76
2023/07/24 00:38:46;;;;;;;1.60;1.40;;;;;;;;;;506495;28;1448;-76
2023/07/24 00:39:01;;;;;;;2.10;1.40;;;;;;;;;;505984;28;1348;-75
2023/07/24 00:39:31;;;;;;;;;;;;;;;;;;;;;
2023/07/24 00:39:57;;;;;;;1.30;1.20;;;;;;;;;;507328;28;1245;-76
2023/07/24 00:40:22;;;;;;;2.35;1.40;;;;;;;;;;506924;28;950;-77
2023/07/24 00:41:36;;;;;;;2.10;1.30;;;;;;;;;;507821;28;1522;-76
2023/07/24 00:42:33;;;;;;;2.60;1.50;;;;;;;;;;503110;28;1149;-76
2023/07/24 00:42:59;;;;;;;1.67;1.40;;;;;;;;;;507359;28;1369;-76
2023/07/24 00:44:09;;;;;;;2.05;1.50;;;;;;;;;;510351;28;934;-76
2023/07/24 00:44:37;;;;;;;2.25;1.40;;;;;;;;;;506261;28;1204;-76
2023/07/24 00:44:53;;;;;;;2.40;1.48;;;;;;;;;;509449;28;987;-76
2023/07/24 00:45:49;;;;;;;2.67;1.40;;;;;;;;;;509060;28;1248;-75
2023/07/24 00:47:17;;;;;;;2.50;1.35;;;;;;;;;;501128;28;1218;-76
2023/07/24 00:48:03;;;;;;;2.00;1.30;;;;;;;;;;501257;29;1039;-76
2023/07/24 00:48:19;;;;;;;2.03;1.38;;;;;;;;;;500597;29;1413;-76
2023/07/24 00:49:30;;;;;;;2.15;1.33;;;;;;;;;;498044;29;1474;-76
2023/07/24 00:50:21;;;;;;;2.13;1.55;;;;;;;;;;496181;29;953;-75
2023/07/24 00:50:49;;;;;;;1.70;1.40;;;;;;;;;;489022;29;1464;-77
2023/07/24 00:51:28;;;;;;;2.38;1.52;;;;;;;;;;495026;29;2139;-76
2023/07/24 00:52:13;;;;;;;1.80;1.40;;;;;;;;;;488215;29;1316;-76
2023/07/24 00:52:41;;;;;;;2.60;1.50;;;;;;;;;;501799;28;1170;-76
2023/07/24 00:53:00;;;;;;;1.98;1.55;;;;;;;;;;503498;28;1315;-76
2023/07/24 00:53:20;;;;;;;1.80;1.50;;;;;;;;;;505438;28;1359;-76
2023/07/24 00:54:00;;;;;;;1.60;1.40;;;;;;;;;;502444;28;1507;-76
2023/07/24 00:54:21;;;;;;;2.05;1.40;;;;;;;;;;501306;29;1918;-76
2023/07/24 00:55:16;;;;;;;1.45;1.35;;;;;;;;;;505169;28;1540;-76
2023/07/24 00:55:42;;;;;;;1.73;1.30;;;;;;;;;;497221;29;1541;-76
2023/07/24 00:56:10;;;;;;;1.67;1.40;;;;;;;;;;496764;29;1345;-76
2023/07/24 00:56:30;;;;;;;1.80;1.40;;;;;;;;;;495579;29;1118;-76
2023/07/24 00:57:22;;;;;;;2.35;1.40;;;;;;;;;;496893;29;1087;-76
2023/07/24 00:57:34;;;;;;;2.38;1.48;;;;;;;;;;495671;29;1238;-76
2023/07/24 00:59:58;;;;;;;;;;;;;;;;;;;;;
2023/07/24 01:00:20;;;;;;;2.03;1.42;;;;;;;;;;499996;29;950;-77
2023/07/24 01:01:19;;;;;;;2.42;1.48;;;;;;;;;;497871;29;1476;-76
2023/07/24 01:01:49;;;;;;;;;;;;;;;;;;;;;
2023/07/24 01:02:20;;;;;;;2.17;1.50;;;;;;;;;;497930;29;1101;-76
2023/07/24 01:02:51;;;;;;;2.53;1.50;;;;;;;;;;499352;29;1417;-76
2023/07/24 01:03:22;;;;;;;1.70;1.40;;;;;;;;;;496679;29;1428;-77
2023/07/24 01:04:02;;;;;;;1.80;1.60;;;;;;;;;;496551;29;1145;-77
2023/07/24 01:04:22;;;;;;;1.65;1.40;;;;;;;;;;495822;29;1496;-76
2023/07/24 01:04:37;;;;;;;2.17;1.38;;;;;;;;;;497444;29;1297;-76
2023/07/24 01:05:05;;;;;;;2.03;1.40;;;;;;;;;;494698;29;1323;-77
2023/07/24 01:05:30;;;;;;;2.10;1.50;;;;;;;;;;497936;29;1448;-76
2023/07/24 01:06:09;;;;;;;1.92;1.50;;;;;;;;;;494685;29;1382;-76
2023/07/24 01:06:45;;;;;;;2.45;1.67;;;;;;;;;;494738;29;1483;-76
2023/07/24 01:07:34;;;;;;;1.85;1.50;;;;;;;;;;494719;29;1473;-76
2023/07/24 01:08:00;;;;;;;3.05;1.55;;;;;;;;;;497448;29;1183;-77
2023/07/24 01:08:22;;;;;;;4.00;1.60;;;;;;;;;;496569;29;1357;-76
2023/07/24 01:08:45;;;;;;;1.98;1.50;;;;;;;;;;494239;29;1369;-76
2023/07/24 01:09:10;;;;;;;2.00;1.35;;;;;;;;;;496148;29;1346;-76
2023/07/24 01:09:29;;;;;;;2.00;1.40;;;;;;;;;;495402;29;1458;-76
2023/07/24 01:10:31;;;;;;;1.80;1.30;;;;;;;;;;496159;29;1319;-77
2023/07/24 01:10:47;;;;;;;2.00;1.60;;;;;;;;;;484446;29;1299;-76
2023/07/24 01:12:09;;;;;;;2.38;1.60;;;;;;;;;;489086;29;1452;-76
2023/07/24 01:12:37;;;;;;;;;;;;;;;;;;;;;
2023/07/24 01:13:10;;;;;;;;;;;;;;;;;;;;;
2023/07/24 01:13:51;;;;;;;1.77;1.30;;;;;;;;;;493033;29;1253;-76
2023/07/24 01:15:06;;;;;;;1.52;1.30;;;;;;;;;;482259;30;1951;-76
2023/07/24 01:15:38;;;;;;;1.60;1.40;;;;;;;;;;489385;29;1342;-76
2023/07/24 01:16:52;;;;;;;1.50;1.40;;;;;;;;;;490019;29;1497;-76
2023/07/24 01:16:57;;;;;;;1.52;1.27;;;;;;;;;;492895;29;1063;-76
2023/07/24 01:17:23;;;;;;;2.17;1.30;;;;;;;;;;489981;29;1480;-75
2023/07/24 01:17:50;;;;;;;1.40;1.20;;;;;;;;;;488971;29;1531;-75
2023/07/24 01:18:27;;;;;;;1.63;1.30;;;;;;;;;;491173;29;1613;-75
2023/07/24 01:19:15;;;;;;;1.88;1.30;;;;;;;;;;489879;29;1254;-75
2023/07/24 01:20:03;;;;;;;1.77;1.38;;;;;;;;;;487634;29;1816;-75
2023/07/24 01:20:55;;;;;;;1.52;1.25;;;;;;;;;;482060;30;1474;-76
2023/07/24 01:21:45;;;;;;;1.80;1.40;;;;;;;;;;483169;29;1661;-76
2023/07/24 01:22:38;;;;;;;2.08;1.42;;;;;;;;;;492613;29;1415;-76
2023/07/24 01:24:04;;;;;;;1.80;1.40;;;;;;;;;;492235;29;1409;-76
2023/07/24 01:25:01;;;;;;;1.90;1.38;;;;;;;;;;490756;29;1304;-76
2023/07/24 01:25:55;;;;;;;3.45;1.40;;;;;;;;;;494414;29;1571;-75
2023/07/24 01:27:03;;;;;;;1.30;1.17;;;;;;;;;;492781;29;1350;-76
2023/07/24 01:27:53;;;;;;;1.63;1.50;;;;;;;;;;488556;29;1294;-76
2023/07/24 01:28:17;;;;;;;1.38;1.27;;;;;;;;;;488994;29;1542;-76
2023/07/24 01:28:39;;;;;;;1.40;1.30;;;;;;;;;;495927;29;1381;-75
2023/07/24 01:29:31;;;;;;;1.50;1.17;;;;;;;;;;494889;29;1316;-75
2023/07/24 01:30:12;;;;;;;1.70;1.58;;;;;;;;;;488469;29;1148;-75
2023/07/24 01:31:33;;;;;;;2.83;1.40;;;;;;;;;;492648;29;1276;-76
2023/07/24 01:31:40;;;;;;;1.73;1.50;;;;;;;;;;485681;29;1344;-76
2023/07/24 01:31:55;;;;;;;3.03;1.40;;;;;;;;;;490056;29;1488;-76
2023/07/24 01:32:54;;;;;;;2.70;1.55;;;;;;;;;;489764;29;1394;-75
2023/07/24 01:33:14;;;;;;;1.75;1.30;;;;;;;;;;489180;29;1302;-76
2023/07/24 01:34:05;;;;;;;1.88;1.35;;;;;;;;;;489567;29;1456;-76
2023/07/24 01:34:44;;;;;;;2.47;1.30;;;;;;;;;;488475;29;1955;-76
2023/07/24 01:34:59;;;;;;;1.70;1.50;;;;;;;;;;489853;29;1322;-76
2023/07/24 01:35:33;;;;;;;1.83;1.60;;;;;;;;;;486846;29;1609;-76
2023/07/24 01:36:20;;;;;;;1.80;1.40;;;;;;;;;;487581;29;1862;-76
2023/07/24 01:36:50;;;;;;;2.17;1.50;;;;;;;;;;489029;29;1523;-76
2023/07/24 01:38:59;;;;;;;2.10;1.50;;;;;;;;;;492169;29;1285;-76
2023/07/24 01:40:17;;;;;;;2.08;1.40;;;;;;;;;;492153;29;1159;-75
2023/07/24 01:40:44;;;;;;;1.75;1.50;;;;;;;;;;488632;29;1249;-76
2023/07/24 01:41:15;;;;;;;3.00;1.60;;;;;;;;;;491646;29;1198;-76
2023/07/24 01:41:55;;;;;;;1.80;1.40;;;;;;;;;;490282;29;1082;-75
2023/07/24 01:42:38;;;;;;;2.42;1.55;;;;;;;;;;490999;29;1489;-76
2023/07/24 01:43:05;;;;;;;1.85;1.60;;;;;;;;;;490804;29;1366;-76
2023/07/24 01:43:36;;;;;;;1.60;1.50;;;;;;;;;;493139;29;1359;-75
2023/07/24 01:43:52;;;;;;;2.38;1.60;;;;;;;;;;493377;29;1513;-75
2023/07/24 01:44:17;;;;;;;2.42;1.60;;;;;;;;;;493854;29;1338;-74
2023/07/24 01:44:33;;;;;;;1.63;1.33;;;;;;;;;;494475;29;1352;-75
2023/07/24 01:45:08;;;;;;;1.40;1.30;;;;;;;;;;493178;29;1331;-76
2023/07/24 01:45:35;;;;;;;2.40;1.70;;;;;;;;;;491842;29;1516;-75
2023/07/24 01:46:03;;;;;;;2.42;1.60;;;;;;;;;;491091;29;1023;-76
2023/07/24 01:46:51;;;;;;;2.00;1.60;;;;;;;;;;492451;29;1534;-76
2023/07/24 01:47:07;;;;;;;3.90;1.88;;;;;;;;;;493395;29;1421;-75
2023/07/24 01:47:51;;;;;;;4.15;2.00;;;;;;;;;;492998;29;1289;-75
2023/07/24 01:48:16;;;;;;;2.15;1.80;;;;;;;;;;487047;29;1372;-76
2023/07/24 01:48:35;;;;;;;2.13;1.80;;;;;;;;;;488281;29;1383;-76
2023/07/24 01:49:08;;;;;;;2.40;1.70;;;;;;;;;;487583;29;1380;-76
2023/07/24 01:49:30;;;;;;;2.20;1.65;;;;;;;;;;486626;29;1396;-75
2023/07/24 01:50:11;;;;;;;2.53;1.70;;;;;;;;;;489199;29;1518;-76
2023/07/24 01:50:42;;;;;;;2.25;1.60;;;;;;;;;;487829;29;1746;-75
2023/07/24 01:51:01;;;;;;;1.75;1.55;;;;;;;;;;491203;29;1406;-75
2023/07/24 01:51:42;;;;;;;1.77;1.40;;;;;;;;;;492421;29;1362;-75
2023/07/24 01:52:04;;;;;;;2.10;1.70;;;;;;;;;;494383;29;1044;-75
2023/07/24 01:53:09;;;;;;;1.98;1.60;;;;;;;;;;495219;29;1118;-75
2023/07/24 01:53:41;;;;;;;;;;;;;;;;;;;;;
2023/07/24 01:54:06;;;;;;;2.58;1.80;;;;;;;;;;494579;29;1293;-76
2023/07/24 01:54:31;;;;;;;1.90;1.70;;;;;;;;;;497595;29;2292;-74
2023/07/24 01:55:24;;;;;;;3.83;1.85;;;;;;;;;;495780;29;1488;-76
2023/07/24 01:55:40;;;;;;;3.80;2.00;;;;;;;;;;493618;29;1473;-76
2023/07/24 01:55:57;;;;;;;3.15;1.98;;;;;;;;;;493433;29;1348;-76
2023/07/24 01:56:37;;;;;;;2.08;1.88;;;;;;;;;;494260;29;1263;-75
2023/07/24 01:56:53;;;;;;;2.47;1.85;;;;;;;;;;494600;29;1492;-75
2023/07/24 01:57:15;;;;;;;3.10;2.00;;;;;;;;;;491068;29;1386;-75
2023/07/24 01:57:54;;;;;;;3.08;2.08;;;;;;;;;;493376;29;1298;-76
2023/07/24 01:58:19;;;;;;;2.75;2.17;;;;;;;;;;490832;29;1577;-76
2023/07/24 01:58:34;;;;;;;2.58;2.00;;;;;;;;;;490868;29;1395;-75
2023/07/24 01:59:22;;;;;;;2.88;2.10;;;;;;;;;;492927;29;1231;-75
2023/07/24 01:59:56;;;;;;;3.13;2.10;;;;;;;;;;493346;29;1217;-76
2023/07/24 02:00:33;;;;;;;2.50;2.20;;;;;;;;;;496710;29;976;-75
2023/07/24 02:00:57;;;;;;;2.72;1.90;;;;;;;;;;497128;29;1647;-75
2023/07/24 02:01:18;;;;;;;2.40;1.90;;;;;;;;;;495899;29;1636;-75
2023/07/24 02:01:34;;;;;;;1.70;1.60;;;;;;;;;;494199;29;1496;-76
2023/07/24 02:01:50;;;;;;;1.98;1.80;;;;;;;;;;494766;29;1481;-76
2023/07/24 02:02:09;;;;;;;2.63;2.10;;;;;;;;;;494864;29;1358;-75
2023/07/24 02:02:28;;;;;;;2.35;2.00;;;;;;;;;;494207;29;1149;-76
2023/07/24 02:02:50;;;;;;;2.10;1.90;;;;;;;;;;495317;29;1418;-76
2023/07/24 02:03:09;;;;;;;2.40;1.90;;;;;;;;;;496318;29;1481;-75
2023/07/24 02:03:43;;;;;;;3.20;1.88;;;;;;;;;;496372;29;1079;-75
2023/07/24 02:04:01;;;;;;;2.30;1.90;;;;;;;;;;494568;29;1497;-76
2023/07/24 02:04:32;;;;;;;2.35;1.90;;;;;;;;;;495747;29;1221;-76
2023/07/24 02:04:50;;;;;;;2.72;1.70;;;;;;;;;;495827;29;1505;-75
2023/07/24 02:05:13;;;;;;;2.33;1.67;;;;;;;;;;497122;29;1115;-76
2023/07/24 02:05:54;;;;;;;1.67;1.48;;;;;;;;;;495138;29;1481;-76
2023/07/24 02:06:10;;;;;;;2.08;1.60;;;;;;;;;;492840;29;1378;-76
2023/07/24 02:06:36;;;;;;;1.83;1.50;;;;;;;;;;495314;29;1262;-76
2023/07/24 02:07:49;;;;;;;2.08;1.60;;;;;;;;;;492274;29;1137;-76
2023/07/24 02:08:10;;;;;;;2.33;1.70;;;;;;;;;;493358;29;1504;-76
2023/07/24 02:08:29;;;;;;;2.80;1.70;;;;;;;;;;496830;29;1401;-75
2023/07/24 02:08:48;;;;;;;2.50;1.60;;;;;;;;;;496129;29;1345;-76
2023/07/24 02:09:07;;;;;;;2.42;1.75;;;;;;;;;;492630;29;1668;-76
2023/07/24 02:09:26;;;;;;;2.30;1.60;;;;;;;;;;493965;29;1274;-76
2023/07/24 02:09:42;;;;;;;2.85;1.70;;;;;;;;;;495070;29;1302;-76
2023/07/24 02:10:01;;;;;;;2.97;1.90;;;;;;;;;;495876;29;1373;-76
2023/07/24 02:10:16;;;;;;;2.38;1.85;;;;;;;;;;494378;29;1454;-75
2023/07/24 02:10:37;;;;;;;2.40;1.87;;;;;;;;;;493932;29;954;-75
2023/07/24 02:11:14;;;;;;;2.30;1.60;;;;;;;;;;494306;29;1311;-75
2023/07/24 02:11:50;;;;;;;2.03;1.80;;;;;;;;;;495026;29;1261;-75
2023/07/24 02:12:32;;;;;;;3.78;1.80;;;;;;;;;;495105;29;1176;-75
2023/07/24 02:13:07;;;;;;;2.95;1.70;;;;;;;;;;496924;29;1390;-76
2023/07/24 02:13:27;;;;;;;2.50;1.50;;;;;;;;;;497328;29;1221;-76
2023/07/24 02:13:59;;;;;;;1.83;1.40;;;;;;;;;;495256;29;953;-75
2023/07/24 02:14:17;;;;;;;2.53;1.77;;;;;;;;;;495381;29;2004;-76
2023/07/24 02:14:36;;;;;;;2.30;1.70;;;;;;;;;;494604;29;1023;-75
2023/07/24 02:15:04;;;;;;;2.38;1.58;;;;;;;;;;494960;29;1478;-76
2023/07/24 02:15:53;;;;;;;1.63;1.40;;;;;;;;;;493571;29;1354;-75
2023/07/24 02:16:35;;;;;;;1.90;1.70;;;;;;;;;;496552;29;1573;-76
2023/07/24 02:17:12;;;;;;;2.45;1.77;;;;;;;;;;491029;29;1240;-75
2023/07/24 02:17:34;;;;;;;2.50;1.90;;;;;;;;;;492677;29;991;-76
2023/07/24 02:18:13;;;;;;;;;;;;;;;;;;;;;
2023/07/24 02:19:04;;;;;;;2.53;2.00;;;;;;;;;;492719;29;1219;-75
2023/07/24 02:19:29;;;;;;;1.98;1.80;;;;;;;;;;495399;29;1256;-76
2023/07/24 02:19:50;;;;;;;2.80;1.90;;;;;;;;;;496434;29;1522;-76
2023/07/24 02:20:17;;;;;;;;;;;;;;;;;;;;;
2023/07/24 02:21:16;;;;;;;2.70;1.75;;;;;;;;;;498382;29;1251;-75
2023/07/24 02:21:44;;;;;;;3.28;1.77;;;;;;;;;;499429;29;1407;-76
2023/07/24 02:22:00;;;;;;;2.28;1.67;;;;;;;;;;498652;29;1349;-75
2023/07/24 02:22:24;;;;;;;2.20;1.70;;;;;;;;;;496422;29;1459;-76
2023/07/24 02:23:08;;;;;;;2.10;1.70;;;;;;;;;;497100;29;1589;-75
2023/07/24 02:23:50;;;;;;;2.08;1.77;;;;;;;;;;496362;29;1674;-75
2023/07/24 02:24:49;;;;;;;2.55;1.67;;;;;;;;;;492427;29;1476;-74
2023/07/24 02:26:18;;;;;;;2.22;1.63;;;;;;;;;;494751;29;2096;-75
2023/07/24 02:26:46;;;;;;;2.72;1.50;;;;;;;;;;494803;29;1410;-75
2023/07/24 02:27:37;;;;;;;3.83;1.60;;;;;;;;;;493995;29;1437;-75
2023/07/24 02:28:16;;;;;;;2.85;1.60;;;;;;;;;;491608;29;1955;-75
2023/07/24 02:29:23;;;;;;;;;;;;;;;;;;;;;
2023/07/24 02:30:05;;;;;;;;;;;;;;;;;;;;;
2023/07/24 02:31:03;;;;;;;2.38;1.52;;;;;;;;;;484882;29;1293;-75
2023/07/24 02:32:22;;;;;;;1.98;1.60;;;;;;;;;;484194;30;1180;-75
2023/07/24 02:33:00;;;;;;;;;;;;;;;;;;;;;
2023/07/24 02:33:57;;;;;;;2.05;1.67;;;;;;;;;;480398;30;1305;-76
2023/07/24 02:34:24;;;;;;;;;;;;;;;;;;;;;
2023/07/24 02:35:11;;;;;;;2.00;1.60;;;;;;;;;;479452;30;1066;-76
2023/07/24 02:36:02;;;;;;;;;;;;;;;;;;;;;
2023/07/24 02:36:57;;;;;;;1.70;1.60;;;;;;;;;;477621;30;1017;-75
2023/07/24 02:37:16;;;;;;;2.40;1.70;;;;;;;;;;479241;30;1155;-75
2023/07/24 02:37:43;;;;;;;2.28;1.60;;;;;;;;;;478596;30;1266;-76
2023/07/24 02:38:37;;;;;;;1.63;1.48;;;;;;;;;;480076;30;1389;-75
2023/07/24 02:39:40;;;;;;;2.67;1.70;;;;;;;;;;481946;30;1277;-75
2023/07/24 02:40:36;;;;;;;2.30;1.60;;;;;;;;;;485918;29;1725;-76
2023/07/24 02:40:51;;;;;;;;;;;;;;;;;;;;;
2023/07/24 02:42:50;;;;;;;2.10;1.60;;;;;;;;;;488583;29;1243;-74
2023/07/24 02:43:13;;;;;;;2.53;1.60;;;;;;;;;;483001;30;1554;-76
2023/07/24 02:43:50;;;;;;;2.50;1.58;;;;;;;;;;482057;30;1435;-74
2023/07/24 02:45:03;;;;;;;;;;;;;;;;;;;;;
2023/07/24 02:46:24;;;;;;;2.00;1.80;;;;;;;;;;484437;30;1310;-75
2023/07/24 02:46:49;;;;;;;2.58;1.70;;;;;;;;;;485263;30;1427;-75
2023/07/24 02:47:05;;;;;;;3.42;1.73;;;;;;;;;;484947;30;1319;-74
2023/07/24 02:48:02;;;;;;;2.63;1.65;;;;;;;;;;485656;30;1332;-75
2023/07/24 02:48:21;;;;;;;2.30;1.50;;;;;;;;;;481482;30;1611;-75
2023/07/24 02:48:40;;;;;;;2.33;1.60;;;;;;;;;;481901;30;1169;-76
2023/07/24 02:49:56;;;;;;;2.13;1.63;;;;;;;;;;482038;30;1504;-75
2023/07/24 02:52:03;;;;;;;1.70;1.60;;;;;;;;;;478662;30;1146;-75
2023/07/24 02:52:48;;;;;;;1.63;1.50;;;;;;;;;;480275;30;1357;-75
2023/07/24 02:53:11;;;;;;;2.35;1.60;;;;;;;;;;481430;30;1317;-75
2023/07/24 02:53:28;;;;;;;3.28;1.70;;;;;;;;;;478585;30;1202;-75
2023/07/24 02:55:18;;;;;;;1.83;1.63;;;;;;;;;;477951;30;1037;-75
2023/07/24 02:55:43;;;;;;;2.03;1.60;;;;;;;;;;482687;30;1933;-76
2023/07/24 02:56:51;;;;;;;2.60;1.60;;;;;;;;;;480799;30;1447;-75
2023/07/24 02:57:22;;;;;;;4.00;1.80;;;;;;;;;;474953;30;1414;-75
2023/07/24 02:58:36;;;;;;;2.70;1.63;;;;;;;;;;475637;30;1688;-75
2023/07/24 02:58:56;;;;;;;1.77;1.50;;;;;;;;;;476644;30;1445;-75
2023/07/24 02:59:48;;;;;;;;;;;;;;;;;;;;;
2023/07/24 03:00:13;;;;;;;1.60;1.50;;;;;;;;;;479654;30;1315;-76
2023/07/24 03:00:31;;;;;;;2.00;1.60;;;;;;;;;;481754;30;1477;-76
2023/07/24 03:01:10;;;;;;;2.67;1.80;;;;;;;;;;481437;30;1485;-76
2023/07/24 03:02:05;;;;;;;2.72;1.65;;;;;;;;;;480087;30;1183;-76
2023/07/24 03:02:41;;;;;;;2.10;1.70;;;;;;;;;;479838;30;1338;-76
2023/07/24 03:03:19;;;;;;;3.38;1.80;;;;;;;;;;480458;30;1499;-76
2023/07/24 03:05:22;;;;;;;1.85;1.65;;;;;;;;;;478971;30;1178;-76
2023/07/24 03:05:58;;;;;;;3.05;1.90;;;;;;;;;;476847;30;2045;-76
2023/07/24 03:06:27;;;;;;;;;;;;;;;;;;;;;
2023/07/24 03:08:19;;;;;;;2.92;2.00;;;;;;;;;;479217;30;1374;-75
2023/07/24 03:08:50;;;;;;;;;;;;;;;;;;;;;
2023/07/24 03:09:59;;;;;;;2.80;2.00;;;;;;;;;;481191;30;1356;-76
2023/07/24 03:10:55;;;;;;;2.65;2.00;;;;;;;;;;483820;30;1479;-75
2023/07/24 03:11:36;;;;;;;;;;;;;;;;;;;;;
2023/07/24 03:12:51;;;;;;;2.85;1.80;;;;;;;;;;487231;29;1184;-75
2023/07/24 03:13:43;;;;;;;2.72;1.98;;;;;;;;;;481125;30;1292;-76
2023/07/24 03:15:01;;;;;;;;;;;;;;;;;;;;;
2023/07/24 03:15:37;;;;;;;1.73;1.60;;;;;;;;;;479015;30;1300;-75
2023/07/24 03:16:05;;;;;;;2.65;1.70;;;;;;;;;;474671;30;1440;-75
2023/07/24 03:17:20;;;;;;;1.90;1.50;;;;;;;;;;472861;30;1370;-75
2023/07/24 03:17:44;;;;;;;3.67;1.90;;;;;;;;;;473583;30;979;-76
2023/07/24 03:18:05;;;;;;;3.47;2.00;;;;;;;;;;478702;30;1352;-76
2023/07/24 03:18:30;;;;;;;2.70;1.90;;;;;;;;;;478767;30;1395;-75
2023/07/24 03:18:52;;;;;;;2.92;1.85;;;;;;;;;;478664;30;1212;-75
2023/07/24 03:19:52;;;;;;;3.20;2.00;;;;;;;;;;480868;30;1164;-76
2023/07/24 03:20:26;;;;;;;3.30;2.00;;;;;;;;;;479672;30;1313;-77
2023/07/24 03:21:14;;;;;;;2.53;1.80;;;;;;;;;;478820;30;1456;-76
2023/07/24 03:22:13;;;;;;;2.50;1.80;;;;;;;;;;479767;30;1499;-76
2023/07/24 03:22:34;;;;;;;2.00;1.65;;;;;;;;;;477974;30;1175;-75
2023/07/24 03:23:52;;;;;;;2.40;1.80;;;;;;;;;;479449;30;1773;-77
2023/07/24 03:24:28;;;;;;;;;;;;;;;;;;;;;
2023/07/24 03:25:05;;;;;;;3.40;1.90;;;;;;;;;;480642;30;1320;-76
2023/07/24 03:25:35;;;;;;;2.40;1.80;;;;;;;;;;480264;30;1417;-76
2023/07/24 03:26:37;;;;;;;2.70;1.80;;;;;;;;;;481293;30;1481;-75
2023/07/24 03:28:25;;;;;;;2.70;1.67;;;;;;;;;;478451;30;1003;-76
2023/07/24 03:28:45;;;;;;;2.10;1.80;;;;;;;;;;477471;30;1308;-76
2023/07/24 03:29:17;;;;;;;2.20;1.80;;;;;;;;;;481346;30;1124;-75
2023/07/24 03:30:22;;;;;;;;;;;;;;;;;;;;;
2023/07/24 03:31:17;;;;;;;3.00;2.10;;;;;;;;;;482849;30;1564;-76
2023/07/24 03:33:48;;;;;;;2.20;1.90;;;;;;;;;;477977;30;1887;-77
2023/07/24 03:34:34;;;;;;;2.25;1.92;;;;;;;;;;477913;30;1544;-75
2023/07/24 03:35:51;;;;;;;2.15;1.83;;;;;;;;;;471167;30;1279;-76
2023/07/24 03:38:25;;;;;;;2.45;1.88;;;;;;;;;;468039;30;1460;-76
2023/07/24 03:40:16;;;;;;;;;;;;;;;;;;;;;
2023/07/24 03:40:49;;;;;;;2.65;2.00;;;;;;;;;;474676;30;1255;-75
2023/07/24 03:41:47;;;;;;;2.40;2.00;;;;;;;;;;474351;30;1013;-76
2023/07/24 03:43:39;;;;;;;2.30;2.10;;;;;;;;;;469354;30;1140;-76
2023/07/24 03:45:18;;;;;;;2.20;2.00;;;;;;;;;;468996;31;1238;-76
2023/07/24 03:45:59;;;;;;;;;;;;;;;;;;;;;
2023/07/24 03:46:33;;;;;;;1.92;1.73;;;;;;;;;;471146;30;1459;-75
2023/07/24 03:47:16;;;;;;;;;;;;;;;;;;;;;
2023/07/24 03:48:04;;;;;;;2.10;1.80;;;;;;;;;;468957;30;1043;-76
2023/07/24 03:50:12;;;;;;;;;;;;;;;;;;;;;
2023/07/24 03:51:04;;;;;;;2.92;1.90;;;;;;;;;;477958;30;1193;-75
2023/07/24 03:53:17;;;;;;;2.65;1.90;;;;;;;;;;479201;30;1100;-75
2023/07/24 03:54:10;;;;;;;2.40;1.80;;;;;;;;;;479983;30;1252;-75
2023/07/24 03:55:07;;;;;;;;;;;;;;;;;;;;;
2023/07/24 03:56:12;;;;;;;2.80;1.90;;;;;;;;;;479103;30;1083;-74
2023/07/24 03:57:40;;;;;;;2.90;1.90;;;;;;;;;;481697;30;1238;-75
2023/07/24 04:00:10;;;;;;;;;;;;;;;;;;;;;
2023/07/24 04:01:49;;;;;;;3.28;1.80;;;;;;;;;;483672;30;1009;-74
2023/07/24 04:02:50;;;;;;;2.88;1.83;;;;;;;;;;482069;30;1624;-75
2023/07/24 04:03:28;;;;;;;2.55;1.70;;;;;;;;;;481442;30;1216;-75
2023/07/24 04:03:50;;;;;;;2.88;1.80;;;;;;;;;;480694;30;1147;-75
2023/07/24 04:04:09;;;;;;;2.80;1.90;;;;;;;;;;482110;30;1107;-75